• Join FlightAware (Why Join?)
  • Login
  • US Flag 
07:35PM EDT


 

Airport Tracker/Info


-or-


 

Live Flight TrackerFlight Track Log ✈ N618JB ✈ 12-Apr-2013 ✈ KSEA - KBOS

Flight Track Log - Related Links

Times and Time Zones

All times are in EDT time to prevent confusion due to time zone crossing. See the N618JB flight status page for this flight to view local times or setup timezone preferences in your user account.

Time Position Orientation Groundspeed Altitude Reporting Facility
EDT Latitude Longitude Course Direction KTS MPH feet Rate Location/Type
02:56AM 47.4325 -122.3086 90° East 170 196 1,300  Level Seattle Center
02:57AM 47.3892 -122.3114 182° South 160 184 3,000 1,620 Climbing Seattle Center
02:58AM 47.3250 -122.3111 180° South 228 262 4,700 2,160 Climbing Seattle Center
02:59AM 47.4167 -121.7040 90° East  Level FlightAware Approximate
02:59AM 47.2864 -122.2167 121° Southeast 305 351 7,400  Level Seattle Center
03:00AM 47.4167 -121.5042 90° East  Level FlightAware Approximate
03:00AM 47.3181 -122.1008 68° East 311 358 9,500  Level Seattle Center
03:01AM 47.4168 -121.3204 90° East  Level FlightAware Approximate
03:01AM 47.3547 -121.9761 67° East 336 387 11,100  Level Seattle Center
03:02AM 47.4067 -121.7967 67° East 403 464 12,800 1,800 Climbing Seattle Center
03:03AM 47.4278 -121.6267 80° East 434 499 14,800 1,860 Climbing Seattle Center
03:04AM 47.4244 -121.4458 91° East 446 513 16,600 1,800 Climbing Seattle Center
03:05AM 47.4214 -121.2589 91° East 461 531 18,400 1,680 Climbing Seattle Center
03:06AM 47.4186 -121.0661 91° East 473 544 20,100 1,380 Climbing Seattle Center
03:07AM 47.4150 -120.8694 91° East 483 556 21,300 1,020 Climbing Seattle Center
03:09AM 47.4097 -120.6469 92° East 490 564 22,600 1,080 Climbing Seattle Center
03:10AM 47.4042 -120.4000 92° East 502 578 23,900 1,200 Climbing Seattle Center
03:11AM 47.3992 -120.1917 92° East 510 587 25,100 1,140 Climbing Seattle Center
03:12AM 47.3933 -119.9792 92° East 517 595 26,200 840 Climbing Seattle Center
03:13AM 47.3869 -119.7617 92° East 528 608 26,800 780 Climbing Seattle Center
03:14AM 47.3794 -119.5428 93° East 534 615 27,800 1,140 Climbing Seattle Center
03:15AM 47.3775 -119.3222 91° East 539 620 29,100 1,200 Climbing Seattle Center
03:16AM 47.3869 -119.1047 86° East 536 617 30,200 960 Climbing Seattle Center
03:17AM 47.3942 -118.8864 87° East 535 616 31,100 840 Climbing Seattle Center
03:18AM 47.4014 -118.6686 87° East 535 616 32,000 900 Climbing Seattle Center
03:19AM 47.4067 -118.4486 88° East 537 618 32,900 480 Climbing Seattle Center
03:20AM 47.4142 -118.1872 87° East 535 616 33,000  Climbing Seattle Center
03:21AM 47.4214 -117.9694 87° East 534 615 33,000  Level Seattle Center
03:22AM 47.4272 -117.7511 88° East 536 617 33,000  Level Seattle Center
03:23AM 47.4319 -117.5319 88° East 538 619 33,000  Level Seattle Center
03:24AM 47.4369 -117.3153 88° East 537 618 33,000  Level Seattle Center
03:25AM 47.4406 -117.1033 88° East 539 620 33,000  Level Seattle Center
03:26AM 47.4458 -116.8942 88° East 530 610 33,000  Level Seattle Center
03:27AM 47.4478 -116.6789 89° East 530 610 33,000  Level Seattle Center
03:28AM 47.4497 -116.4631 89° East 530 610 33,000  Level Seattle Center
03:29AM 47.4522 -116.2467 89° East 530 610 33,000  Level Seattle Center
03:30AM 47.4539 -116.0303 89° East 529 609 33,000  Level Seattle Center
03:31AM 47.4558 -115.8136 89° East 530 610 33,000  Level Seattle Center
03:32AM 47.4558 -115.5800 90° East 530 610 33,000  Level Seattle Center
03:33AM 47.4456 -115.3628 94° East 533 613 33,000  Level Seattle Center
03:34AM 47.4361 -115.1494 94° East 527 606 33,000  Level Seattle Center
03:35AM 47.4267 -114.9358 94° East 526 605 33,000  Level Seattle Center
03:36AM 47.4164 -114.7247 94° East 523 602 33,000  Level Seattle Center
03:37AM 47.4081 -114.5533 94° East 525 604 33,000  Level Salt Lake Center
03:38AM 47.3969 -114.3419 94° East 521 600 33,000  Level Salt Lake Center
03:39AM 47.3853 -114.1317 95° East 520 598 33,000  Level Salt Lake Center
03:40AM 47.3733 -113.9244 95° East 514 592 33,000  Level Salt Lake Center
03:41AM 47.3631 -113.7161 94° East 512 589 33,000  Level Salt Lake Center
03:42AM 47.3500 -113.5097 95° East 509 586 33,000  Level Salt Lake Center
03:43AM 47.3381 -113.3036 95° East 506 582 33,000  Level Salt Lake Center
03:44AM 47.3253 -113.0981 95° East 507 583 33,000  Level Salt Lake Center
03:45AM 47.3122 -112.8853 95° East 507 583 33,000  Level Salt Lake Center
03:46AM 47.2994 -112.6803 95° East 504 580 33,000  Level Salt Lake Center
03:47AM 47.2856 -112.4781 96° East 501 577 33,000  Level Salt Lake Center
03:48AM 47.2714 -112.2789 96° East 494 568 33,000 -60 Level Salt Lake Center
03:49AM 47.2575 -112.0786 96° East 494 568 32,900  Descending Salt Lake Center
03:50AM 47.2439 -111.8789 96° East 494 568 33,000  Climbing Salt Lake Center
03:51AM 47.2300 -111.6800 96° East 493 567 33,000  Level Salt Lake Center
03:52AM 47.2108 -111.4400 97° East 496 571 33,000  Level Salt Lake Center
03:53AM 47.1956 -111.2406 96° East 498 573 33,000  Level Salt Lake Center
03:54AM 47.1800 -111.0419 97° East 497 572 33,000  Level Salt Lake Center
03:55AM 47.1625 -110.8439 97° East 495 570 33,000  Level Salt Lake Center
03:56AM 47.1467 -110.6442 97° East 496 571 33,000  Level Salt Lake Center
03:57AM 47.1303 -110.4458 97° East 494 568 33,000  Level Salt Lake Center
03:58AM 47.1108 -110.2414 98° East 496 571 33,000  Level Salt Lake Center
03:59AM 47.0956 -110.0442 96° East 502 578 33,000  Level Salt Lake Center
04:00AM 47.0781 -109.8450 97° East 500 575 33,000  Level Salt Lake Center
04:01AM 47.0747 -109.6417 91° East 498 573 33,000  Level Salt Lake Center
04:02AM 47.0711 -109.4358 91° East 503 579 33,000  Level Salt Lake Center
04:03AM 47.0658 -109.2317 92° East 504 580 33,000  Level Salt Lake Center
04:04AM 47.0589 -109.0033 92° East 503 579 33,100  Climbing Salt Lake Center
04:05AM 47.0539 -108.8106 92° East 495 570 33,000 -60 Descending Salt Lake Center
04:06AM 47.0481 -108.6106 92° East 503 579 33,000  Level Salt Lake Center
04:07AM 47.0419 -108.4139 93° East 506 582 33,000  Level Salt Lake Center
04:08AM 47.0361 -108.1822 92° East 510 587 33,000  Level Salt Lake Center
04:09AM 47.0292 -107.9850 93° East 508 585 33,000  Level Salt Lake Center
04:10AM 47.0222 -107.7867 93° East 509 586 33,000  Level Salt Lake Center
04:11AM 47.0125 -107.5553 93° East 508 585 33,100  Climbing Salt Lake Center
04:12AM 47.0053 -107.3542 93° East 514 592 33,100  Level Salt Lake Center
04:13AM 46.9972 -107.1544 93° East 514 592 33,100  Level Salt Lake Center
04:14AM 46.9886 -106.9592 94° East 506 582 33,100 -60 Level Salt Lake Center
04:15AM 46.9778 -106.7300 94° East 505 581 33,000 -60 Descending Salt Lake Center
04:16AM 46.9675 -106.5361 94° East 501 577 33,000  Level Salt Lake Center
04:17AM 46.9597 -106.3467 93° East 494 568 33,000  Level Salt Lake Center
04:18AM 46.9483 -106.1458 95° East 489 563 33,000  Level Salt Lake Center
04:19AM 46.9394 -105.9486 94° East 489 563 33,000  Level Salt Lake Center
04:20AM 46.9269 -105.7514 95° East 489 563 33,000  Level Salt Lake Center
04:21AM 46.9167 -105.5517 94° East 492 566 33,000  Level Salt Lake Center
04:22AM 46.9044 -105.3511 95° East 496 571 33,000  Level Salt Lake Center
04:23AM 46.8931 -105.1531 95° East 495 570 33,000  Level Salt Lake Center
04:24AM 46.8819 -104.9558 95° East 492 566 33,000  Level Salt Lake Center
04:25AM 46.8694 -104.7572 95° East 492 566 33,000  Level Salt Lake Center
04:26AM 46.8583 -104.5639 95° East 487 560 33,000  Level Salt Lake Center
04:27AM 46.8444 -104.3681 96° East 487 560 33,000  Level Salt Lake Center
04:28AM 46.8331 -104.1739 95° East 486 559 33,000  Level Salt Lake Center
04:29AM 46.8192 -103.9761 96° East 488 562 33,000 480 Level Salt Lake Center
04:30AM 46.8047 -103.7789 96° East 490 564 34,000 840 Climbing Salt Lake Center
04:31AM 46.7917 -103.5867 96° East 488 562 34,800 480 Climbing Salt Lake Center
04:32AM 46.7772 -103.3983 96° East 481 554 35,000 60 Climbing Salt Lake Center
04:33AM 46.7631 -103.2036 96° East 481 554 35,000  Level Salt Lake Center
04:34AM 46.7467 -103.0092 97° East 484 557 35,000  Level Salt Lake Center
04:35AM 46.7319 -102.8131 96° East 486 559 35,000  Level Salt Lake Center
04:35AM 46.7253 -102.6981 95° East 486 559 35,000  Level Minneapolis Center
04:36AM 46.7067 -102.4639 97° East 487 560 35,000  Level Minneapolis Center
04:37AM 46.6892 -102.2733 98° East 482 555 35,000  Level Minneapolis Center
04:38AM 46.6717 -102.0803 97° East 481 554 35,000  Level Minneapolis Center
04:39AM 46.6542 -101.8889 98° East 480 552 35,000  Level Minneapolis Center
04:40AM 46.6375 -101.6953 97° East 482 555 35,000  Level Minneapolis Center
04:41AM 46.6181 -101.5142 99° East 481 554 35,000  Level Minneapolis Center
04:42AM 46.6006 -101.3194 97° East 483 556 35,100  Climbing Minneapolis Center
04:43AM 46.5839 -101.1197 97° East 490 564 35,100  Level Minneapolis Center
04:44AM 46.5647 -100.9239 98° East 490 564 35,100  Level Minneapolis Center
04:45AM 46.5456 -100.7350 98° East 482 555 35,100 -60 Level Minneapolis Center
04:46AM 46.5247 -100.5472 99° East 475 547 35,000 -60 Descending Minneapolis Center
04:47AM 46.5047 -100.3569 99° East 474 545 35,000  Level Minneapolis Center
04:48AM 46.4856 -100.1631 98° East 477 549 35,100  Climbing Minneapolis Center
04:49AM 46.4653 -99.9703 99° East 481 554 35,100 -60 Level Minneapolis Center
04:50AM 46.4453 -99.7811 99° East 478 550 35,000  Descending Minneapolis Center
04:51AM 46.4250 -99.5856 98° East 482 555 35,100  Climbing Minneapolis Center
04:52AM 46.4033 -99.3967 99° East 479 551 35,000 -60 Descending Minneapolis Center
04:53AM 46.3831 -99.2161 99° East 476 548 35,000  Level Minneapolis Center
04:54AM 46.3625 -99.0294 99° East 474 545 35,000  Level Minneapolis Center
04:55AM 46.3411 -98.8408 99° East 476 548 35,000  Level Minneapolis Center
04:57AM 46.3200 -98.6531 99° East 477 549 35,000  Level Minneapolis Center
04:58AM 46.2972 -98.4653 100° East 477 549 35,000  Level Minneapolis Center
04:59AM 46.2753 -98.2803 100° East 473 544 35,000  Level Minneapolis Center
05:00AM 46.2508 -98.0933 101° East 475 547 35,000  Level Minneapolis Center
05:01AM 46.2275 -97.9075 100° East 476 548 35,000  Level Minneapolis Center
05:02AM 46.1981 -97.6833 101° East 477 549 35,000  Level Minneapolis Center
05:03AM 46.1753 -97.4975 100° East 475 547 35,000  Level Minneapolis Center
05:04AM 46.1458 -97.2739 101° East 476 548 35,000  Level Minneapolis Center
05:05AM 46.1217 -97.0872 101° East 476 548 35,000  Level Minneapolis Center
05:06AM 46.0956 -96.9008 101° East 474 545 35,000  Level Minneapolis Center
05:07AM 46.0697 -96.7167 101° East 472 543 35,000  Level Minneapolis Center
05:08AM 46.0442 -96.5297 101° East 474 545 35,000  Level Minneapolis Center
05:09AM 46.0183 -96.3453 101° East 473 544 35,100  Climbing Minneapolis Center
05:10AM 45.9919 -96.1564 101° East 478 550 35,100 -60 Level Minneapolis Center
05:11AM 45.9661 -95.9742 101° East 471 542 35,000 -60 Descending Minneapolis Center
05:12AM 45.9400 -95.7883 101° East 474 545 35,000  Level Minneapolis Center
05:13AM 45.9125 -95.6039 102° East 473 544 35,000  Level Minneapolis Center
05:14AM 45.8856 -95.4194 102° East 473 544 35,000  Level Minneapolis Center
05:15AM 45.8581 -95.2344 102° East 474 545 35,000  Level Minneapolis Center
05:16AM 45.8297 -95.0486 102° East 476 548 35,000  Level Minneapolis Center
05:17AM 45.8053 -94.8861 102° East 478 550 35,000  Level Minneapolis Center
05:18AM 45.7769 -94.7008 102° East 478 550 35,000  Level Minneapolis Center
05:19AM 45.7483 -94.5139 102° East 480 552 35,000  Level Minneapolis Center
05:20AM 45.7136 -94.2911 103° East 480 552 35,000  Level Minneapolis Center
05:21AM 45.6831 -94.1086 103° East 476 548 35,000  Level Minneapolis Center
05:22AM 45.6533 -93.9228 103° East 479 551 35,000  Level Minneapolis Center
05:23AM 45.6219 -93.7386 104° East 479 551 35,000  Level Minneapolis Center
05:24AM 45.5919 -93.5536 103° East 479 551 35,000  Level Minneapolis Center
05:25AM 45.5614 -93.3681 103° East 480 552 35,000  Level Minneapolis Center
05:26AM 45.5292 -93.1842 104° East 479 551 35,000  Level Minneapolis Center
05:27AM 45.4972 -92.9981 104° East 482 555 35,000  Level Minneapolis Center
05:28AM 45.4656 -92.8142 104° East 480 552 35,000  Level Minneapolis Center
05:29AM 45.4339 -92.6303 104° East 479 551 35,000  Level Minneapolis Center
05:30AM 45.4008 -92.4467 104° East 479 551 35,000  Level Minneapolis Center
05:31AM 45.3683 -92.2622 104° East 481 554 35,000  Level Minneapolis Center
05:32AM 45.3350 -92.0800 105° East 478 550 35,000  Level Minneapolis Center
05:33AM 45.3008 -91.8956 105° East 483 556 35,000  Level Minneapolis Center
05:34AM 45.2675 -91.7142 105° East 478 550 35,000  Level Minneapolis Center
05:35AM 45.2333 -91.5308 105° East 480 552 35,000  Level Minneapolis Center
05:36AM 45.1914 -91.3106 105° East 483 556 35,100  Climbing Minneapolis Center
05:37AM 45.1614 -91.1433 104° East 480 552 35,100 -60 Level Minneapolis Center
05:38AM 45.1267 -90.9608 105° East 480 552 35,000 -60 Descending Minneapolis Center
05:39AM 45.0911 -90.7789 105° East 478 550 35,000  Level Minneapolis Center
05:40AM 45.0547 -90.5964 106° East 481 554 35,000  Level Minneapolis Center
05:41AM 45.0189 -90.4144 106° East 483 556 35,000  Level Minneapolis Center
05:42AM 44.9836 -90.2314 105° East 484 557 35,000  Level Minneapolis Center
05:43AM 44.9464 -90.0483 106° East 486 559 35,000  Level Minneapolis Center
05:44AM 44.9097 -89.8642 106° East 489 563 35,000  Level Minneapolis Center
05:45AM 44.8669 -89.6567 106° East 490 564 35,000  Level Minneapolis Center
05:46AM 44.8286 -89.4711 106° East 491 565 35,000  Level Minneapolis Center
05:47AM 44.7894 -89.2864 107° East 492 566 35,000  Level Minneapolis Center
05:48AM 44.7506 -89.0994 106° East 495 570 35,000  Level Minneapolis Center
05:49AM 44.7114 -88.9139 106° East 494 568 35,000  Level Minneapolis Center
05:50AM 44.6717 -88.7258 106° East 498 573 35,000  Level Minneapolis Center
05:51AM 44.6308 -88.5400 107° East 497 572 35,100  Climbing Minneapolis Center
05:52AM 44.5906 -88.3544 107° East 496 571 35,000 -60 Descending Minneapolis Center
05:53AM 44.5492 -88.1672 107° East 500 575 35,000  Level Minneapolis Center
05:54AM 44.5094 -87.9792 106° East 501 577 35,000  Level Minneapolis Center
05:55AM 44.4758 -87.8208 107° East 502 578 35,000  Level Minneapolis Center
05:56AM 44.4289 -87.6031 107° East 503 579 35,000  Level Minneapolis Center
05:57AM 44.3894 -87.4158 106° East 502 578 35,000  Level Minneapolis Center
05:58AM 44.3481 -87.2281 107° East 502 578 35,000  Level Minneapolis Center
05:59AM 44.3069 -87.0394 107° East 504 580 35,000  Level Minneapolis Center
06:00AM 44.2661 -86.8508 107° East 508 585 35,000  Level Minneapolis Center
06:01AM 44.2225 -86.6619 108° East 513 590 35,000  Level Minneapolis Center
06:02AM 44.1808 -86.4731 107° East 515 593 35,000  Level Minneapolis Center
06:03AM 44.1392 -86.2867 107° East 511 588 35,000  Level Minneapolis Center
06:04AM 44.0978 -86.1094 108° East 513 590 35,000  Level Minneapolis Center
06:05AM 44.0542 -85.9206 108° East 513 590 35,000  Level Minneapolis Center
06:06AM 44.0106 -85.7336 108° East 510 587 35,000  Level Minneapolis Center
06:07AM 43.9669 -85.5472 108° East 509 586 35,000  Level Minneapolis Center
06:08AM 43.9231 -85.3600 108° East 509 586 35,000  Level Minneapolis Center
06:09AM 43.8775 -85.1725 109° East 510 587 35,000  Level Minneapolis Center
06:10AM 43.8322 -84.9842 108° East 512 589 35,000  Level Minneapolis Center
06:11AM 43.7867 -84.7964 109° East 513 590 35,000  Level Minneapolis Center
06:12AM 43.7417 -84.6089 108° East 514 592 35,100  Climbing Minneapolis Center
06:13AM 43.6964 -84.4225 109° East 513 590 35,000 -60 Descending Minneapolis Center
06:14AM 43.6500 -84.2364 109° East 513 590 35,000  Level Minneapolis Center
06:15AM 43.6042 -84.0503 109° East 513 590 35,000  Level Minneapolis Center
06:16AM 43.5517 -83.8631 111° Southeast 508 585 35,000  Level Cleveland Center
06:17AM 43.5067 -83.6772 108° East 508 585 35,000  Level Cleveland Center
06:18AM 43.4592 -83.4975 110° East 508 585 35,000  Level Cleveland Center
06:19AM 43.4114 -83.3181 110° East 503 579 35,000  Level Cleveland Center
06:20AM 43.3656 -83.1361 109° East 503 579 35,000  Level Cleveland Center
06:21AM 43.3172 -82.9572 110° East 503 579 35,000  Level Cleveland Center
06:22AM 43.2667 -82.7728 111° Southeast 509 586 35,100  Climbing Cleveland Center
06:23AM 43.2475 -82.5725 97° East 509 586 35,100 -120 Level Cleveland Center
06:24AM 43.2333 -82.5000 105° East 530 610 35,000 -120 Descending Toronto Center
06:25AM 43.2333 -82.2833 90° East 530 610 35,000  Level Toronto Center
06:26AM 43.2167 -82.0833 96° East 520 598 35,000  Level Toronto Center
06:27AM 43.2333 -81.9000 83° East 520 598 35,000  Level Toronto Center
06:28AM 43.2167 -81.7000 96° East 520 598 35,000  Level Toronto Center
06:29AM 43.2167 -81.5167 90° East 520 598 35,000  Level Toronto Center
06:30AM 43.2000 -81.3000 96° East 520 598 35,000  Level Toronto Center
06:31AM 43.2000 -81.1000 90° East 520 598 35,000  Level Toronto Center
06:32AM 43.1833 -80.9167 97° East 520 598 35,000  Level Toronto Center
06:33AM 43.2000 -80.7000 84° East 520 598 35,000  Level Toronto Center
06:34AM 43.1833 -80.5167 97° East 510 587 35,000  Level Toronto Center
06:35AM 43.1833 -80.3167 90° East 520 598 35,000  Level Toronto Center
06:36AM 43.1667 -80.1167 96° East 520 598 35,000  Level Toronto Center
06:37AM 43.1667 -79.9000 90° East 520 598 35,000  Level Toronto Center
06:38AM 43.1500 -79.7167 97° East 530 610 35,100  Climbing Toronto Center
06:39AM 43.1500 -79.5167 90° East 530 610 35,100 -60 Level Toronto Center
06:40AM 43.1333 -79.3167 96° East 530 610 35,000 -60 Descending Toronto Center
06:41AM 43.1333 -79.1000 90° East 530 610 35,000  Level Toronto Center
06:42AM 43.1167 -78.9333 98° East 530 610 35,000  Level Toronto Center
06:43AM 43.1000 -78.7167 96° East 520 598 35,000  Level Toronto Center
06:44AM 43.0711 -78.5200 101° East 519 597 35,000  Level Cleveland Center
06:45AM 43.0489 -78.3275 99° East 519 597 35,000  Level Cleveland Center
06:46AM 43.0242 -78.1381 100° East 519 597 35,000  Level Cleveland Center
06:47AM 42.9989 -77.9403 100° East 524 603 35,000  Level Cleveland Center
06:48AM 42.9761 -77.7681 100° East 524 603 35,000  Level Cleveland Center
06:49AM 42.9506 -77.5736 100° East 519 597 35,000  Level Cleveland Center
06:51AM 42.8833 -77.1833 103° East 520 598 35,000  Level Toronto Center
06:52AM 42.8833 -76.9500 90° East 530 610 35,000  Level Toronto Center
06:53AM 42.8833 -76.7667 90° East 540 621 35,000  Level Toronto Center
06:53AM 42.8792 -76.7022 95° East 540 621 35,000  Level Boston Center
06:54AM 42.8742 -76.4978 92° East 540 621 35,000  Level Boston Center
06:55AM 42.8686 -76.2933 92° East 540 621 35,000  Level Boston Center
06:56AM 42.8608 -76.0917 93° East 540 621 35,000  Level Boston Center
06:57AM 42.8525 -75.8872 93° East 540 621 35,000  Level Boston Center
06:58AM 42.8439 -75.6828 93° East 540 621 35,000  Level Boston Center
06:59AM 42.8314 -75.4556 94° East 540 621 35,000  Level Boston Center
07:00AM 42.8219 -75.2539 94° East 540 621 35,000  Level Boston Center
07:01AM 42.8125 -75.0469 93° East 540 621 35,000  Level Boston Center
07:02AM 42.8042 -74.8483 93° East 535 616 35,000  Level Boston Center
07:03AM 42.7936 -74.6472 94° East 535 616 35,000 -60 Level Boston Center
07:04AM 42.7831 -74.4375 94° East 540 621 34,900 -540 Descending Boston Center
07:05AM 42.7697 -74.2389 95° East 540 621 34,000 -960 Descending Boston Center
07:06AM 42.7622 -74.0350 93° East 535 616 33,000 -960 Descending Boston Center
07:07AM 42.7481 -73.8397 96° East 535 616 32,100 -960 Descending Boston Center
07:08AM 42.7317 -73.6442 96° East 528 608 31,200 -1,020 Descending Boston Center
07:09AM 42.7106 -73.4489 98° East 528 608 30,100 -900 Descending Boston Center
07:10AM 42.6953 -73.2961 98° East 522 601 29,400 -780 Descending Boston Center
07:11AM 42.6736 -73.0925 98° East 511 588 28,400 -1,260 Descending Boston Center
07:12AM 42.6475 -72.8664 99° East 510 587 26,700 -2,220 Descending Boston Center
07:13AM 42.6253 -72.6856 99° East 492 566 24,000 -2,460 Descending Boston Center
07:14AM 42.6108 -72.5133 96° East 477 549 21,800 -2,040 Descending Boston Center
07:15AM 42.5817 -72.3414 103° East 470 541 19,900 -2,040 Descending Boston Center
07:16AM 42.5628 -72.1808 99° East 440 506 17,800 -2,220 Descending Boston Center
07:17AM 42.5392 -72.0117 101° East 419 482 15,600 -2,040 Descending Boston Center
07:18AM 42.5281 -71.8711 96° East 413 475 13,800 -1,920 Descending Boston Center
07:19AM 42.5147 -71.7050 96° East 407 468 11,800 -1,620 Descending Boston Center
07:20AM 42.5000 -71.5833 99° East 394 453 11,000 -480 Descending KA90
07:21AM 42.4833 -71.4500 100° East 387 445 11,000  Level KA90
07:22AM 42.4667 -71.3167 100° East 392 451 11,000 -420 Level KA90
07:23AM 42.4667 -71.1667 90° East 359 413 10,200 -1,080 Descending KA90
07:24AM 42.4500 -71.0167 99° East 335 386 8,700 -1,380 Descending KA90
07:25AM 42.3833 -70.9500 144° Southeast 285 328 7,200 -1,200 Descending KA90
07:26AM 42.3000 -70.9333 172° South 240 276 6,100 -1,380 Descending KA90
07:27AM 42.2333 -70.9500 190° South 230 265 4,400 -1,500 Descending KA90
07:28AM 42.1833 -70.9667 194° South 240 276 3,400 -840 Descending KA90
07:29AM 42.1667 -71.0333 251° West 217 250 3,000 -720 Descending KA90
07:30AM 42.2167 -71.0833 323° Northwest 200 230 2,100 -540 Descending KA90
07:31AM 42.2667 -71.0500 26° Northeast 180 207 2,000 -480 Descending KA90
07:32AM 42.3000 -71.0333 20° North 145 167 1,200 -780 Descending KA90
07:33AM 42.3333 -71.0167 20° North 130 150 500 -720 Descending KA90
07:35AM 42.3500 -71.0000 North  Level FlightAware Approximate